This is the latest recevied weather packets stored in our database for station/object ON7SD-5. If no packets are shown the sender has not sent any weather packets the latest 1 day(s).
| Time | Temp. | Humidity | Pressure | Rain* | Wind** | Luminosity | Snow |
|---|---|---|---|---|---|---|---|
| 1777997826 | 15.56° C | 70% | 1007.6 hPa | 0 mm | 0.89 m/s, 20° | 265 W/m² | - |
| 1777997526 | 15.56° C | 70% | 1007.7 hPa | 0 mm | 1.34 m/s, 18° | 211 W/m² | - |
| 1777997226 | 15.56° C | 70% | 1007.7 hPa | 0 mm | 1.34 m/s, 2° | 269 W/m² | - |
| 1777996926 | 15.56° C | 70% | 1007.7 hPa | 0 mm | 1.34 m/s, 7° | 318 W/m² | - |
| 1777996626 | 16.11° C | 69% | 1007.7 hPa | 0 mm | 1.34 m/s, 16° | 225 W/m² | - |
| 1777996326 | 16.11° C | 67% | 1007.7 hPa | 0 mm | 1.34 m/s, 15° | 225 W/m² | - |
| 1777996026 | 16.11° C | 67% | 1007.7 hPa | 0 mm | 0.89 m/s, 16° | 362 W/m² | - |
| 1777995726 | 15.56° C | 71% | 1007.6 hPa | 0 mm | 0.89 m/s, 69° | 306 W/m² | - |
| 1777995426 | 15.56° C | 73% | 1007.6 hPa | 0 mm | 0.89 m/s, 65° | 415 W/m² | - |
| 1777995126 | 15° C | 75% | 1007.7 hPa | 0 mm | 0.89 m/s, 64° | 250 W/m² | - |
| 1777994826 | 15° C | 75% | 1007.8 hPa | 0 mm | 0.89 m/s, 64° | 181 W/m² | - |
| 1777994526 | 15° C | 75% | 1007.8 hPa | 0 mm | 1.34 m/s, 64° | 185 W/m² | - |
| 1777994226 | 15° C | 75% | 1007.8 hPa | 0 mm | 0.89 m/s, 63° | 163 W/m² | - |
| 1777993926 | 15° C | 75% | 1007.8 hPa | 0 mm | 0.89 m/s, 62° | 179 W/m² | - |
| 1777993626 | 15° C | 75% | 1007.9 hPa | 0 mm | 0.89 m/s, 71° | 195 W/m² | - |
| 1777993326 | 15.56° C | 74% | 1007.9 hPa | 0 mm | 1.34 m/s, 71° | 146 W/m² | - |
| 1777993026 | 15° C | 75% | 1007.9 hPa | 0 mm | 1.34 m/s, 65° | 213 W/m² | - |
| 1777992726 | 15° C | 75% | 1007.9 hPa | 0 mm | 0.89 m/s, 64° | 278 W/m² | - |
| 1777992426 | 15.56° C | 75% | 1008 hPa | 0 mm | 0.89 m/s, 63° | 302 W/m² | - |
| 1777992126 | 15.56° C | 77% | 1008.1 hPa | 0 mm | 0.89 m/s, 62° | 374 W/m² | - |
| 1777991826 | 15° C | 78% | 1008.2 hPa | 0 mm | 1.34 m/s, 62° | 425 W/m² | - |
| 1777991526 | 14.44° C | 78% | 1008.2 hPa | 0 mm | 1.34 m/s, 62° | 306 W/m² | - |
| 1777991226 | 14.44° C | 78% | 1008.2 hPa | 0 mm | 0.89 m/s, 63° | 241 W/m² | - |
| 1777990926 | 14.44° C | 78% | 1008.3 hPa | 0 mm | 0.89 m/s, 64° | 141 W/m² | - |
| 1777990626 | 14.44° C | 78% | 1008.4 hPa | 0 mm | 0.89 m/s, 64° | 125 W/m² | - |
* Rain latest hour (hover to see other rain measurements)
** Current wind speed in m/s (hover to see current wind gust speed)